createdAt,value
2023-01-15T00:02:26.557Z,8.10
2023-01-15T00:05:12.842Z,8.01
2023-01-15T00:08:00.029Z,7.82
2023-01-15T00:10:46.030Z,7.75
2023-01-15T00:13:32.043Z,7.64
2023-01-15T00:16:18.249Z,7.57
2023-01-15T00:19:08.093Z,7.38
2023-01-15T00:21:53.975Z,7.35
2023-01-15T00:24:59.351Z,7.27
2023-01-15T00:27:50.624Z,7.07
2023-01-15T00:30:40.378Z,7.08
2023-01-15T00:33:27.029Z,6.99
2023-01-15T00:36:13.239Z,6.82
2023-01-15T00:38:59.549Z,6.72
2023-01-15T00:41:47.115Z,6.69
2023-01-15T00:44:33.863Z,6.59
2023-01-15T00:47:19.966Z,6.55
2023-01-15T00:50:08.455Z,6.47
2023-01-15T00:52:54.619Z,6.49
2023-01-15T00:55:41.486Z,6.36
2023-01-15T00:58:28.811Z,6.35
2023-01-15T01:01:15.676Z,6.27
2023-01-15T01:04:01.974Z,6.22
2023-01-15T01:06:47.631Z,6.22
2023-01-15T01:09:33.665Z,6.15
2023-01-15T01:12:21.137Z,6.05
2023-01-15T01:15:09.829Z,6.02
2023-01-15T01:17:56.352Z,5.95
2023-01-15T01:20:42.839Z,5.92
2023-01-15T01:23:29.583Z,5.91
2023-01-15T01:26:16.130Z,5.88
2023-01-15T01:29:03.276Z,5.86
2023-01-15T01:31:51.103Z,5.72
2023-01-15T01:34:37.601Z,5.75
2023-01-15T01:37:23.506Z,5.71
2023-01-15T01:40:09.957Z,5.69
2023-01-15T01:42:56.556Z,5.60
2023-01-15T01:45:42.914Z,5.54
2023-01-15T01:48:31.946Z,5.47
2023-01-15T01:51:17.725Z,5.45
2023-01-15T01:54:03.691Z,5.42
2023-01-15T01:56:49.456Z,5.31
2023-01-15T01:59:35.356Z,5.33
2023-01-15T02:02:22.647Z,5.31
2023-01-15T02:05:10.391Z,5.26
2023-01-15T02:07:57.197Z,5.22
2023-01-15T02:10:43.001Z,5.22
2023-01-15T02:13:32.215Z,5.17
2023-01-15T02:16:19.066Z,5.13
2023-01-15T02:19:07.319Z,5.11
2023-01-15T02:22:02.254Z,5.08
2023-01-15T02:24:50.978Z,5.10
2023-01-15T02:27:38.570Z,5.12
2023-01-15T02:30:25.890Z,5.08
2023-01-15T02:33:16.694Z,5.08
2023-01-15T02:36:06.397Z,5.06
2023-01-15T02:38:54.282Z,5.01
2023-01-15T02:41:42.783Z,5.04
2023-01-15T02:44:31.631Z,5.01
2023-01-15T02:47:20.318Z,5.07
2023-01-15T02:50:07.488Z,5.09
2023-01-15T02:53:00.235Z,5.07
2023-01-15T02:55:50.621Z,5.09
2023-01-15T02:58:40.062Z,5.03
2023-01-15T03:01:30.114Z,5.02
2023-01-15T03:04:17.503Z,4.98
2023-01-15T03:07:06.749Z,4.94
2023-01-15T03:09:54.471Z,4.95
2023-01-15T03:13:02.186Z,4.94
2023-01-15T03:16:12.223Z,4.93
2023-01-15T03:19:01.605Z,4.90
2023-01-15T03:21:48.695Z,4.89
2023-01-15T03:24:40.995Z,4.89
2023-01-15T03:27:28.018Z,4.90
2023-01-15T03:30:16.597Z,4.88
2023-01-15T03:33:02.556Z,4.89
2023-01-15T03:35:52.680Z,4.89
2023-01-15T03:38:53.221Z,4.90
2023-01-15T03:42:00.810Z,4.91
2023-01-15T03:44:48.903Z,4.92
2023-01-15T03:47:39.577Z,4.96
2023-01-15T03:50:29.655Z,4.97
2023-01-15T03:53:19.301Z,4.95
2023-01-15T03:56:12.405Z,4.97
2023-01-15T03:59:03.464Z,5.00
2023-01-15T04:02:06.991Z,5.00
2023-01-15T04:04:53.269Z,5.01
2023-01-15T04:07:39.680Z,4.99
2023-01-15T04:10:26.798Z,5.01
2023-01-15T04:13:14.466Z,4.99
2023-01-15T04:16:01.910Z,4.98
2023-01-15T04:18:48.193Z,4.96
2023-01-15T04:21:34.488Z,4.97
2023-01-15T04:24:20.288Z,4.95
2023-01-15T04:27:07.268Z,4.93
2023-01-15T04:29:52.842Z,4.93
2023-01-15T04:32:38.719Z,4.95
2023-01-15T04:35:24.625Z,4.95
2023-01-15T04:38:10.506Z,4.94
2023-01-15T04:41:14.057Z,4.94
2023-01-15T04:44:07.466Z,4.95
2023-01-15T04:46:54.067Z,4.95
2023-01-15T04:49:40.094Z,4.96
2023-01-15T04:52:25.848Z,4.96
2023-01-15T04:55:11.610Z,4.94
2023-01-15T04:57:57.353Z,4.96
2023-01-15T05:00:44.414Z,4.93
2023-01-15T05:03:30.205Z,4.94
2023-01-15T05:06:17.569Z,4.93
2023-01-15T05:09:04.193Z,4.92
2023-01-15T05:11:50.235Z,4.92
2023-01-15T05:14:36.099Z,4.92
2023-01-15T05:17:23.186Z,4.93
2023-01-15T05:20:09.518Z,4.91
2023-01-15T05:22:55.233Z,4.92
2023-01-15T05:25:40.972Z,4.94
2023-01-15T05:28:26.776Z,4.92
2023-01-15T05:31:13.349Z,4.87
2023-01-15T05:34:00.370Z,4.92
2023-01-15T05:36:46.230Z,4.89
2023-01-15T05:39:32.023Z,4.92
2023-01-15T05:42:17.705Z,4.92
2023-01-15T05:45:03.895Z,4.93
2023-01-15T05:47:49.625Z,4.94
2023-01-15T05:50:36.729Z,4.94
2023-01-15T05:53:22.461Z,4.95
2023-01-15T05:56:08.494Z,4.94
2023-01-15T05:58:54.891Z,4.96
2023-01-15T06:01:41.038Z,4.93
2023-01-15T06:04:27.115Z,4.96
2023-01-15T06:07:14.491Z,4.95
2023-01-15T06:10:00.468Z,4.98
2023-01-15T06:12:47.169Z,4.99
2023-01-15T06:15:32.942Z,5.03
2023-01-15T06:18:18.604Z,5.03
2023-01-15T06:21:04.514Z,5.04
2023-01-15T06:23:51.663Z,5.04
2023-01-15T06:26:38.281Z,5.05
2023-01-15T06:29:24.080Z,5.02
2023-01-15T06:32:09.959Z,5.00
2023-01-15T06:34:55.723Z,5.02
2023-01-15T06:37:41.421Z,5.04
2023-01-15T06:40:29.491Z,5.03
2023-01-15T06:43:32.884Z,5.03
2023-01-15T06:46:36.887Z,5.01
2023-01-15T06:49:22.962Z,5.03
2023-01-15T06:52:08.891Z,5.06
2023-01-15T06:54:54.794Z,5.03
2023-01-15T06:57:42.090Z,5.04
2023-01-15T07:00:27.959Z,5.04
2023-01-15T07:03:14.364Z,5.04
2023-01-15T07:06:00.580Z,5.03
2023-01-15T07:08:46.391Z,5.05
2023-01-15T07:11:32.295Z,5.06
2023-01-15T07:14:20.253Z,5.05
2023-01-15T07:17:06.678Z,5.03
2023-01-15T07:19:52.473Z,5.00
2023-01-15T07:22:38.390Z,4.99
2023-01-15T07:25:24.111Z,5.01
2023-01-15T07:28:10.040Z,4.98
2023-01-15T07:31:00.170Z,5.01
2023-01-15T07:33:46.022Z,5.01
2023-01-15T07:36:31.862Z,4.97
2023-01-15T07:39:17.675Z,4.99
2023-01-15T07:42:26.646Z,4.95
2023-01-15T07:45:30.264Z,5.01
2023-01-15T07:48:35.164Z,5.01
2023-01-15T07:51:21.407Z,5.02
2023-01-15T07:54:07.190Z,5.04
2023-01-15T07:56:53.500Z,5.03
2023-01-15T07:59:39.725Z,5.01
2023-01-15T08:02:25.462Z,5.01
2023-01-15T08:05:12.894Z,5.02
2023-01-15T08:07:58.891Z,5.02
2023-01-15T08:11:06.515Z,5.01
2023-01-15T08:14:10.298Z,5.03
2023-01-15T08:16:57.051Z,5.06
2023-01-15T08:19:42.989Z,5.04
2023-01-15T08:22:30.232Z,5.07
2023-01-15T08:25:17.178Z,5.09
2023-01-15T08:28:03.371Z,5.08
2023-01-15T08:30:49.224Z,5.10
2023-01-15T08:33:35.133Z,5.11
2023-01-15T08:36:20.953Z,5.13
2023-01-15T08:39:08.086Z,5.14
2023-01-15T08:41:53.934Z,5.16
2023-01-15T08:44:39.782Z,5.19
2023-01-15T08:47:25.564Z,5.19
2023-01-15T08:50:12.625Z,5.20
2023-01-15T08:52:58.492Z,5.26
2023-01-15T08:55:45.483Z,5.26
2023-01-15T08:58:31.534Z,5.30
2023-01-15T09:01:17.423Z,5.29
2023-01-15T09:04:03.444Z,5.34
2023-01-15T09:06:49.640Z,5.38
2023-01-15T09:09:35.706Z,5.44
2023-01-15T09:12:24.760Z,5.50
2023-01-15T09:15:11.682Z,5.59
2023-01-15T09:17:57.652Z,5.68
2023-01-15T09:20:43.574Z,5.74
2023-01-15T09:23:29.653Z,5.80
2023-01-15T09:26:26.824Z,5.85
2023-01-15T09:29:14.079Z,5.90
2023-01-15T09:32:00.601Z,5.97
2023-01-15T09:34:46.638Z,6.00
2023-01-15T09:37:32.566Z,6.04
2023-01-15T09:40:21.869Z,6.12
2023-01-15T09:43:08.064Z,6.21
2023-01-15T09:45:56.391Z,6.25
2023-01-15T09:48:45.820Z,6.33
2023-01-15T09:51:33.150Z,6.43
2023-01-15T09:54:21.438Z,6.46
2023-01-15T09:57:09.168Z,6.49
2023-01-15T10:00:00.793Z,6.55
2023-01-15T10:02:49.279Z,6.64
2023-01-15T10:05:36.227Z,6.61
2023-01-15T10:08:22.576Z,6.57
2023-01-15T10:11:15.585Z,6.61
2023-01-15T10:14:03.781Z,6.53
2023-01-15T10:16:49.735Z,6.47
2023-01-15T10:19:44.425Z,6.40
2023-01-15T10:22:41.106Z,6.32
2023-01-15T10:25:28.643Z,6.28
2023-01-15T10:28:18.038Z,6.26
2023-01-15T10:31:06.218Z,6.23
2023-01-15T10:33:55.985Z,6.21
2023-01-15T10:36:44.320Z,6.16
2023-01-15T10:39:31.462Z,6.13
2023-01-15T10:42:20.630Z,6.15
2023-01-15T10:45:07.242Z,6.16
2023-01-15T10:47:55.089Z,6.24
2023-01-15T10:50:41.984Z,6.24
2023-01-15T10:53:30.444Z,6.28
2023-01-15T10:56:17.297Z,6.31
2023-01-15T10:59:08.472Z,6.31
2023-01-15T11:01:55.465Z,6.37
2023-01-15T11:04:42.272Z,6.42
2023-01-15T11:07:32.784Z,6.40
2023-01-15T11:10:21.428Z,6.40
2023-01-15T11:13:31.158Z,6.39
2023-01-15T11:16:35.513Z,6.38
2023-01-15T11:19:40.941Z,6.46
2023-01-15T11:22:28.725Z,6.55
2023-01-15T11:25:15.062Z,6.56
2023-01-15T11:28:03.906Z,6.59
2023-01-15T11:30:54.377Z,6.57
2023-01-15T11:33:41.041Z,6.70
2023-01-15T11:36:27.653Z,6.72
2023-01-15T11:39:23.687Z,6.77
2023-01-15T11:42:38.073Z,6.77
2023-01-15T11:45:43.107Z,6.82
2023-01-15T11:48:48.963Z,6.93
2023-01-15T11:51:39.177Z,7.08
2023-01-15T11:54:25.459Z,7.09
2023-01-15T11:57:12.179Z,7.05
2023-01-15T11:59:58.175Z,7.00
2023-01-15T12:02:46.219Z,6.92
2023-01-15T12:05:33.243Z,6.93
2023-01-15T12:08:22.221Z,6.93
2023-01-15T12:11:25.926Z,6.88
2023-01-15T12:14:31.676Z,6.93
2023-01-15T12:17:21.777Z,7.08
2023-01-15T12:20:12.596Z,7.44
2023-01-15T12:23:02.667Z,7.66
2023-01-15T12:25:51.033Z,7.82
2023-01-15T12:28:37.807Z,7.76
2023-01-15T12:31:24.790Z,7.66
2023-01-15T12:34:15.548Z,7.48
2023-01-15T12:37:04.095Z,7.39
2023-01-15T12:39:50.761Z,7.32
2023-01-15T12:42:54.448Z,7.34
2023-01-15T12:45:41.659Z,7.20
2023-01-15T12:48:28.268Z,7.14
2023-01-15T12:51:15.072Z,7.05
2023-01-15T12:54:04.315Z,7.00
2023-01-15T12:56:55.064Z,6.92
2023-01-15T12:59:42.488Z,6.87
2023-01-15T13:02:29.248Z,6.82
2023-01-15T13:05:17.460Z,6.79
2023-01-15T13:08:04.752Z,6.81
2023-01-15T13:10:52.928Z,6.72
2023-01-15T13:13:39.806Z,6.71
2023-01-15T13:16:28.844Z,6.64
2023-01-15T13:19:18.255Z,6.68
2023-01-15T13:22:04.860Z,6.66
2023-01-15T13:24:54.246Z,6.63
2023-01-15T13:27:44.216Z,6.63
2023-01-15T13:30:41.301Z,6.59
2023-01-15T13:33:28.249Z,6.63
2023-01-15T13:36:14.643Z,6.62
2023-01-15T13:39:01.182Z,6.63
2023-01-15T13:42:05.907Z,6.66
2023-01-15T13:44:53.821Z,6.70
2023-01-15T13:47:42.849Z,6.73
2023-01-15T13:50:30.529Z,6.75
2023-01-15T13:53:18.680Z,6.83
2023-01-15T13:56:06.301Z,6.94
2023-01-15T13:58:53.356Z,7.00
2023-01-15T14:01:40.767Z,7.00
2023-01-15T14:04:33.995Z,6.98
2023-01-15T14:07:20.074Z,7.00
2023-01-15T14:10:10.235Z,6.93
2023-01-15T14:12:59.627Z,6.90
2023-01-15T14:15:48.005Z,6.83
2023-01-15T14:18:41.782Z,6.84
2023-01-15T14:21:29.202Z,6.80
2023-01-15T14:24:22.005Z,6.72
2023-01-15T14:27:09.000Z,6.72
2023-01-15T14:29:58.984Z,6.71
2023-01-15T14:32:49.585Z,6.70
2023-01-15T14:35:37.680Z,6.64
2023-01-15T14:38:23.800Z,6.65
2023-01-15T14:41:12.476Z,6.66
2023-01-15T14:43:58.404Z,6.68
2023-01-15T14:46:44.461Z,6.64
2023-01-15T14:49:30.603Z,6.61
2023-01-15T14:52:18.228Z,6.60
2023-01-15T14:55:04.566Z,6.62
2023-01-15T14:57:52.919Z,6.60
2023-01-15T15:00:39.020Z,6.61
2023-01-15T15:03:27.234Z,6.62
2023-01-15T15:06:13.523Z,6.60
2023-01-15T15:09:01.589Z,6.56
2023-01-15T15:12:05.271Z,6.58
2023-01-15T15:14:54.362Z,6.55
2023-01-15T15:17:41.620Z,6.54
2023-01-15T15:20:31.367Z,6.55
2023-01-15T15:23:19.975Z,6.53
2023-01-15T15:26:07.940Z,6.50
2023-01-15T15:28:58.040Z,6.47
2023-01-15T15:31:44.433Z,6.46
2023-01-15T15:34:32.128Z,6.45
2023-01-15T15:37:19.290Z,6.41
2023-01-15T15:40:06.134Z,6.40
2023-01-15T15:43:12.668Z,6.37
2023-01-15T15:46:16.523Z,6.35
2023-01-15T15:49:02.437Z,6.37
2023-01-15T15:51:49.480Z,6.32
2023-01-15T15:54:35.193Z,6.32
2023-01-15T15:57:21.051Z,6.30
2023-01-15T16:00:11.256Z,6.29
2023-01-15T16:02:57.008Z,6.27
2023-01-15T16:05:43.572Z,6.27
2023-01-15T16:08:29.880Z,6.24
2023-01-15T16:11:15.892Z,6.19
2023-01-15T16:14:05.077Z,6.23
2023-01-15T16:16:52.200Z,6.18
2023-01-15T16:19:38.002Z,6.19
2023-01-15T16:22:23.639Z,6.17
2023-01-15T16:25:21.170Z,6.17
2023-01-15T16:28:06.845Z,6.21
2023-01-15T16:30:56.237Z,6.20
2023-01-15T16:33:43.373Z,6.16
2023-01-15T16:36:29.168Z,6.23
2023-01-15T16:39:18.479Z,6.20
2023-01-15T16:42:04.637Z,6.18
2023-01-15T16:44:51.329Z,6.21
2023-01-15T16:47:37.410Z,6.19
2023-01-15T16:50:29.113Z,6.19
2023-01-15T16:53:29.466Z,6.22
2023-01-15T16:56:25.209Z,6.24
2023-01-15T16:59:15.768Z,6.25
2023-01-15T17:02:04.428Z,6.28
2023-01-15T17:04:51.469Z,6.24
2023-01-15T17:07:38.665Z,6.23
2023-01-15T17:10:25.726Z,6.26
2023-01-15T17:13:17.325Z,6.27
2023-01-15T17:16:05.421Z,6.26
2023-01-15T17:18:51.811Z,6.24
2023-01-15T17:21:38.071Z,6.28
2023-01-15T17:24:25.256Z,6.23
2023-01-15T17:27:11.107Z,6.25
2023-01-15T17:29:57.142Z,6.22
2023-01-15T17:32:43.701Z,6.24
2023-01-15T17:35:30.532Z,6.27
2023-01-15T17:38:16.694Z,6.27
2023-01-15T17:41:07.003Z,6.26
2023-01-15T17:43:52.897Z,6.29
2023-01-15T17:46:38.895Z,6.27
2023-01-15T17:49:25.137Z,6.30
2023-01-15T17:52:14.136Z,6.26
2023-01-15T17:55:19.040Z,6.26
2023-01-15T17:58:24.207Z,6.26
2023-01-15T18:01:33.600Z,6.27
2023-01-15T18:04:38.384Z,6.25
2023-01-15T18:07:25.444Z,6.25
2023-01-15T18:10:11.854Z,6.26
2023-01-15T18:12:57.682Z,6.29
2023-01-15T18:15:45.165Z,6.25
2023-01-15T18:18:31.034Z,6.26
2023-01-15T18:21:16.851Z,6.26
2023-01-15T18:24:04.200Z,6.26
2023-01-15T18:26:51.751Z,6.24
2023-01-15T18:29:40.072Z,6.19
2023-01-15T18:32:30.318Z,6.16
2023-01-15T18:35:17.208Z,6.19
2023-01-15T18:38:02.877Z,6.16
2023-01-15T18:40:48.713Z,6.14
2023-01-15T18:43:52.634Z,6.12
2023-01-15T18:46:44.819Z,6.10
2023-01-15T18:49:32.132Z,6.07
2023-01-15T18:52:35.737Z,6.06
2023-01-15T18:55:22.607Z,6.10
2023-01-15T18:58:08.566Z,6.06
2023-01-15T19:00:54.557Z,6.07
2023-01-15T19:03:40.389Z,6.09
2023-01-15T19:06:27.536Z,6.05
2023-01-15T19:09:16.398Z,6.06
2023-01-15T19:12:02.446Z,6.03
2023-01-15T19:15:06.229Z,6.03
2023-01-15T19:18:09.967Z,6.02
2023-01-15T19:20:56.140Z,6.05
2023-01-15T19:23:43.812Z,6.03
2023-01-15T19:26:30.627Z,6.03
2023-01-15T19:29:16.651Z,6.01
2023-01-15T19:32:04.029Z,5.98
2023-01-15T19:34:53.011Z,5.98
2023-01-15T19:37:40.630Z,5.96
2023-01-15T19:40:31.363Z,6.02
2023-01-15T19:43:35.313Z,5.98
2023-01-15T19:46:41.026Z,6.01
2023-01-15T19:49:44.929Z,5.99
2023-01-15T19:52:37.732Z,5.98
2023-01-15T19:55:25.912Z,6.00
2023-01-15T19:58:13.925Z,6.02
2023-01-15T20:01:00.711Z,5.99
2023-01-15T20:03:47.466Z,5.93
2023-01-15T20:06:33.133Z,5.87
2023-01-15T20:09:18.996Z,5.79
2023-01-15T20:12:22.412Z,5.78
2023-01-15T20:15:10.287Z,5.75
2023-01-15T20:17:56.028Z,5.70
2023-01-15T20:20:42.121Z,5.63
2023-01-15T20:23:28.089Z,5.62
2023-01-15T20:26:14.620Z,5.60
2023-01-15T20:29:00.357Z,5.61
2023-01-15T20:31:47.588Z,5.61
2023-01-15T20:34:36.374Z,5.61
2023-01-15T20:37:23.138Z,5.63
2023-01-15T20:40:10.267Z,5.62
2023-01-15T20:43:14.014Z,5.60
2023-01-15T20:46:07.351Z,5.59
2023-01-15T20:49:12.439Z,5.59
2023-01-15T20:51:58.964Z,5.61
2023-01-15T20:54:44.801Z,5.61
2023-01-15T20:57:31.096Z,5.62
2023-01-15T21:00:18.060Z,5.63
2023-01-15T21:03:04.870Z,5.62
2023-01-15T21:05:52.423Z,5.65
2023-01-15T21:08:39.782Z,5.63
2023-01-15T21:11:26.290Z,5.60
2023-01-15T21:14:12.462Z,5.61
2023-01-15T21:17:01.226Z,5.59
2023-01-15T21:19:46.848Z,5.58
2023-01-15T21:22:33.918Z,5.55
2023-01-15T21:25:19.774Z,5.52
2023-01-15T21:28:05.718Z,5.50
2023-01-15T21:30:51.856Z,5.46
2023-01-15T21:33:37.804Z,5.49
2023-01-15T21:36:24.361Z,5.51
2023-01-15T21:39:12.623Z,5.50
2023-01-15T21:42:21.379Z,5.50
2023-01-15T21:49:19.347Z,5.47
2023-01-15T21:52:08.593Z,5.46
2023-01-15T21:54:56.093Z,5.46
2023-01-15T21:57:42.088Z,5.44
2023-01-15T22:00:28.207Z,5.40
2023-01-15T22:03:17.363Z,5.39
2023-01-15T22:06:04.929Z,5.36
2023-01-15T22:08:50.786Z,5.32
2023-01-15T22:11:44.976Z,5.31
2023-01-15T22:14:31.276Z,5.27
2023-01-15T22:17:17.026Z,5.27
2023-01-15T22:20:02.960Z,5.27
2023-01-15T22:22:49.109Z,5.23
2023-01-15T22:25:35.390Z,5.24
2023-01-15T22:28:34.444Z,5.24
2023-01-15T22:31:29.333Z,5.26
2023-01-15T22:34:16.391Z,5.25
2023-01-15T22:40:09.658Z,5.21
2023-01-15T22:43:05.871Z,5.24
2023-01-15T22:45:53.581Z,5.26
2023-01-15T22:48:39.812Z,5.23
2023-01-15T22:51:25.953Z,5.23
2023-01-15T22:54:12.337Z,5.25
2023-01-15T22:56:58.359Z,5.24
2023-01-15T22:59:45.337Z,5.26
2023-01-15T23:02:50.600Z,5.30
2023-01-15T23:05:38.823Z,5.29
2023-01-15T23:08:26.634Z,5.31
2023-01-15T23:11:13.197Z,5.30
2023-01-15T23:13:59.094Z,5.31
2023-01-15T23:16:45.263Z,5.30
2023-01-15T23:19:33.490Z,5.28
2023-01-15T23:22:19.368Z,5.25
2023-01-15T23:25:05.926Z,5.25
2023-01-15T23:27:51.715Z,5.22
2023-01-15T23:30:37.645Z,5.13
2023-01-15T23:33:23.871Z,5.09
2023-01-15T23:36:12.182Z,5.03
2023-01-15T23:38:58.179Z,4.99
2023-01-15T23:42:02.320Z,4.96
2023-01-15T23:45:06.007Z,4.90
2023-01-15T23:47:52.086Z,4.79
2023-01-15T23:50:38.072Z,4.83
2023-01-15T23:53:25.574Z,4.81
2023-01-15T23:56:11.826Z,4.80
2023-01-15T23:58:57.731Z,4.77
